createdAt,value
2023-03-19T00:02:17.951Z,44.61
2023-03-19T00:04:46.903Z,44.72
2023-03-19T00:07:15.855Z,44.78
2023-03-19T00:09:43.872Z,45.09
2023-03-19T00:12:12.077Z,45.06
2023-03-19T00:14:39.536Z,45.21
2023-03-19T00:17:07.248Z,45.31
2023-03-19T00:19:34.947Z,45.68
2023-03-19T00:22:02.624Z,45.84
2023-03-19T00:24:30.316Z,45.64
2023-03-19T00:26:58.004Z,45.71
2023-03-19T00:29:26.028Z,45.97
2023-03-19T00:31:53.411Z,45.92
2023-03-19T00:34:21.555Z,46.17
2023-03-19T00:36:49.616Z,46.10
2023-03-19T00:39:17.442Z,46.02
2023-03-19T00:41:50.384Z,46.17
2023-03-19T00:44:19.222Z,46.15
2023-03-19T00:46:46.929Z,46.58
2023-03-19T00:49:14.395Z,46.55
2023-03-19T00:51:43.958Z,46.54
2023-03-19T00:54:12.685Z,46.68
2023-03-19T00:56:40.240Z,46.87
2023-03-19T00:59:07.810Z,46.78
2023-03-19T01:01:35.717Z,46.90
2023-03-19T01:04:03.725Z,46.86
2023-03-19T01:06:31.291Z,46.90
2023-03-19T01:08:59.024Z,46.88
2023-03-19T01:11:26.511Z,47.04
2023-03-19T01:13:53.967Z,47.13
2023-03-19T01:16:22.472Z,47.24
2023-03-19T01:18:50.124Z,47.24
2023-03-19T01:21:17.777Z,47.22
2023-03-19T01:23:45.766Z,47.35
2023-03-19T01:26:13.608Z,47.42
2023-03-19T01:28:41.944Z,47.46
2023-03-19T01:31:10.284Z,47.85
2023-03-19T01:33:38.561Z,47.79
2023-03-19T01:36:08.035Z,47.75
2023-03-19T01:38:36.266Z,48.00
2023-03-19T01:41:04.756Z,48.40
2023-03-19T01:43:33.113Z,48.15
2023-03-19T01:46:06.757Z,47.95
2023-03-19T01:48:39.865Z,47.82
2023-03-19T01:51:11.163Z,47.90
2023-03-19T01:53:42.118Z,47.97
2023-03-19T01:56:23.758Z,47.82
2023-03-19T01:58:54.719Z,47.82
2023-03-19T02:01:23.281Z,48.07
2023-03-19T02:03:52.701Z,47.76
2023-03-19T02:06:21.569Z,47.86
2023-03-19T02:08:50.142Z,48.08
2023-03-19T02:11:18.474Z,48.01
2023-03-19T02:13:47.166Z,48.00
2023-03-19T02:16:15.962Z,48.12
2023-03-19T02:18:44.340Z,48.43
2023-03-19T02:21:15.018Z,48.24
2023-03-19T02:23:58.594Z,48.34
2023-03-19T02:26:29.355Z,48.11
2023-03-19T02:28:59.342Z,48.42
2023-03-19T02:31:28.043Z,48.36
2023-03-19T02:34:02.524Z,48.36
2023-03-19T02:36:43.296Z,48.26
2023-03-19T02:39:18.902Z,47.92
2023-03-19T02:41:47.251Z,48.25
2023-03-19T02:44:14.862Z,48.20
2023-03-19T02:46:42.524Z,48.14
2023-03-19T02:49:10.209Z,48.46
2023-03-19T02:51:38.943Z,47.98
2023-03-19T02:54:06.577Z,48.20
2023-03-19T02:56:35.345Z,48.30
2023-03-19T02:59:03.107Z,48.50
2023-03-19T03:01:30.512Z,48.42
2023-03-19T03:03:58.257Z,48.44
2023-03-19T03:06:25.718Z,48.51
2023-03-19T03:08:53.133Z,48.68
2023-03-19T03:11:20.741Z,47.98
2023-03-19T03:13:48.417Z,47.92
2023-03-19T03:16:15.900Z,48.05
2023-03-19T03:18:43.614Z,48.14
2023-03-19T03:21:11.749Z,48.32
2023-03-19T03:23:39.093Z,47.98
2023-03-19T03:26:07.380Z,47.81
2023-03-19T03:28:35.528Z,47.99
2023-03-19T03:31:03.718Z,48.33
2023-03-19T03:33:31.715Z,48.02
2023-03-19T03:35:59.237Z,47.84
2023-03-19T03:38:27.041Z,48.03
2023-03-19T03:40:54.729Z,48.38
2023-03-19T03:43:25.445Z,48.29
2023-03-19T03:45:54.528Z,47.75
2023-03-19T03:48:22.838Z,48.01
2023-03-19T03:50:50.309Z,48.14
2023-03-19T03:53:18.345Z,47.89
2023-03-19T03:55:46.120Z,47.81
2023-03-19T03:58:13.694Z,48.06
2023-03-19T04:00:41.200Z,48.04
2023-03-19T04:03:08.906Z,48.08
2023-03-19T04:05:37.717Z,48.25
2023-03-19T04:08:07.171Z,48.33
2023-03-19T04:10:36.811Z,48.45
2023-03-19T04:13:04.321Z,48.19
2023-03-19T04:15:31.992Z,48.22
2023-03-19T04:18:00.405Z,48.90
2023-03-19T04:20:27.837Z,49.00
2023-03-19T04:22:55.206Z,48.88
2023-03-19T04:25:22.924Z,48.77
2023-03-19T04:27:50.468Z,48.40
2023-03-19T04:30:17.996Z,48.33
2023-03-19T04:32:46.306Z,48.27
2023-03-19T04:35:13.748Z,48.73
2023-03-19T04:37:41.997Z,48.64
2023-03-19T04:40:11.034Z,48.75
2023-03-19T04:42:38.863Z,48.89
2023-03-19T04:45:07.614Z,48.88
2023-03-19T04:47:35.600Z,48.83
2023-03-19T04:50:02.946Z,49.13
2023-03-19T04:52:31.156Z,49.31
2023-03-19T04:54:58.929Z,49.12
2023-03-19T04:57:27.070Z,49.14
2023-03-19T04:59:54.642Z,49.73
2023-03-19T05:02:22.422Z,49.03
2023-03-19T05:04:49.924Z,49.29
2023-03-19T05:07:17.567Z,48.98
2023-03-19T05:09:46.386Z,48.91
2023-03-19T05:12:14.539Z,48.78
2023-03-19T05:14:42.516Z,49.08
2023-03-19T05:17:11.311Z,49.16
2023-03-19T05:19:40.208Z,48.94
2023-03-19T05:22:08.508Z,48.80
2023-03-19T05:24:36.208Z,48.86
2023-03-19T05:27:03.889Z,48.77
2023-03-19T05:29:31.525Z,48.66
2023-03-19T05:32:03.092Z,48.41
2023-03-19T05:34:31.433Z,48.65
2023-03-19T05:36:59.178Z,48.95
2023-03-19T05:39:27.012Z,48.42
2023-03-19T05:41:54.888Z,48.61
2023-03-19T05:44:23.336Z,48.40
2023-03-19T05:46:52.260Z,48.16
2023-03-19T05:49:20.725Z,47.44
2023-03-19T05:51:48.419Z,47.89
2023-03-19T05:54:16.258Z,47.16
2023-03-19T05:56:44.457Z,46.59
2023-03-19T05:59:14.114Z,46.27
2023-03-19T06:01:42.082Z,45.62
2023-03-19T06:04:09.898Z,45.10
2023-03-19T06:06:37.833Z,44.35
2023-03-19T06:09:05.402Z,44.11
2023-03-19T06:11:33.355Z,44.03
2023-03-19T06:14:02.441Z,44.18
2023-03-19T06:16:31.115Z,43.95
2023-03-19T06:18:59.183Z,43.73
2023-03-19T06:21:30.537Z,43.32
2023-03-19T06:23:58.218Z,43.18
2023-03-19T06:26:28.345Z,42.75
2023-03-19T06:28:55.952Z,42.67
2023-03-19T06:31:23.491Z,42.01
2023-03-19T06:33:51.452Z,41.69
2023-03-19T06:36:19.205Z,41.54
2023-03-19T06:38:47.821Z,41.34
2023-03-19T06:41:16.358Z,40.92
2023-03-19T06:43:44.213Z,40.42
2023-03-19T06:46:12.133Z,39.78
2023-03-19T06:48:39.913Z,39.13
2023-03-19T06:51:07.442Z,38.40
2023-03-19T06:53:35.479Z,37.90
2023-03-19T06:56:03.615Z,37.62
2023-03-19T06:58:31.326Z,37.41
2023-03-19T07:00:59.954Z,36.99
2023-03-19T07:03:27.669Z,36.98
2023-03-19T07:05:55.192Z,36.52
2023-03-19T07:08:22.753Z,36.47
2023-03-19T07:10:50.498Z,36.46
2023-03-19T07:13:17.889Z,36.56
2023-03-19T07:15:45.356Z,36.62
2023-03-19T07:18:13.018Z,36.43
2023-03-19T07:20:40.348Z,36.62
2023-03-19T07:23:07.741Z,36.92
2023-03-19T07:25:35.474Z,36.82
2023-03-19T07:28:02.867Z,36.79
2023-03-19T07:30:30.737Z,36.86
2023-03-19T07:32:58.450Z,36.51
2023-03-19T07:35:25.986Z,37.04
2023-03-19T07:37:53.425Z,36.97
2023-03-19T07:40:21.480Z,36.80
2023-03-19T07:42:48.985Z,37.00
2023-03-19T07:45:16.471Z,36.63
2023-03-19T07:47:44.152Z,35.80
2023-03-19T07:50:11.542Z,35.95
2023-03-19T07:52:39.064Z,36.01
2023-03-19T07:55:06.966Z,35.89
2023-03-19T07:57:34.290Z,35.87
2023-03-19T08:00:01.886Z,35.74
2023-03-19T08:02:29.653Z,35.49
2023-03-19T08:04:58.512Z,35.55
2023-03-19T08:07:26.207Z,35.45
2023-03-19T08:09:53.549Z,35.34
2023-03-19T08:12:21.222Z,35.11
2023-03-19T08:14:48.581Z,35.12
2023-03-19T08:17:15.997Z,34.95
2023-03-19T08:19:43.792Z,34.91
2023-03-19T08:22:11.669Z,34.78
2023-03-19T08:24:39.088Z,35.04
2023-03-19T08:27:07.802Z,34.73
2023-03-19T08:29:35.326Z,34.95
2023-03-19T08:32:03.048Z,34.37
2023-03-19T08:34:30.920Z,34.22
2023-03-19T08:36:58.257Z,34.04
2023-03-19T08:39:25.882Z,33.79
2023-03-19T08:41:53.523Z,33.63
2023-03-19T08:44:21.467Z,33.28
2023-03-19T08:46:48.868Z,33.05
2023-03-19T08:49:16.726Z,33.32
2023-03-19T08:51:44.646Z,33.03
2023-03-19T08:54:13.749Z,32.87
2023-03-19T08:56:41.421Z,36.21
2023-03-19T08:59:08.754Z,32.97
2023-03-19T09:01:36.727Z,33.20
2023-03-19T09:04:04.505Z,33.12
2023-03-19T09:06:31.969Z,37.89
2023-03-19T09:08:59.341Z,41.56
2023-03-19T09:11:27.145Z,34.07
2023-03-19T09:13:54.508Z,32.45
2023-03-19T09:16:21.985Z,31.49
2023-03-19T09:18:49.670Z,30.87
2023-03-19T09:21:17.100Z,30.76
2023-03-19T09:23:44.475Z,30.84
2023-03-19T09:26:12.143Z,30.66
2023-03-19T09:28:39.660Z,30.65
2023-03-19T09:31:11.531Z,30.38
2023-03-19T09:33:39.279Z,30.69
2023-03-19T09:36:07.156Z,31.19
2023-03-19T09:38:34.714Z,30.66
2023-03-19T09:41:05.116Z,30.34
2023-03-19T09:43:32.972Z,30.25
2023-03-19T09:46:04.341Z,30.42
2023-03-19T09:48:41.015Z,30.42
2023-03-19T09:51:13.909Z,30.10
2023-03-19T09:54:07.401Z,30.16
2023-03-19T09:56:35.404Z,30.04
2023-03-19T09:59:03.316Z,30.14
2023-03-19T10:01:35.637Z,29.71
2023-03-19T10:04:19.544Z,29.48
2023-03-19T10:06:47.065Z,29.93
2023-03-19T10:09:17.718Z,29.43
2023-03-19T10:12:29.460Z,29.71
2023-03-19T10:15:00.345Z,29.37
2023-03-19T10:17:32.617Z,29.40
2023-03-19T10:20:10.574Z,29.38
2023-03-19T10:22:51.130Z,29.10
2023-03-19T10:25:22.616Z,28.95
2023-03-19T10:27:59.188Z,29.21
2023-03-19T10:30:27.243Z,29.13
2023-03-19T10:33:08.946Z,29.07
2023-03-19T10:35:48.884Z,29.28
2023-03-19T10:38:24.125Z,29.00
2023-03-19T10:41:16.872Z,29.03
2023-03-19T10:43:47.642Z,28.77
2023-03-19T10:46:15.754Z,29.11
2023-03-19T10:48:45.709Z,29.19
2023-03-19T10:51:26.854Z,28.72
2023-03-19T10:53:57.816Z,28.91
2023-03-19T10:56:27.266Z,28.75
2023-03-19T10:59:21.251Z,28.47
2023-03-19T11:01:48.784Z,28.25
2023-03-19T11:04:28.721Z,27.91
2023-03-19T11:07:02.054Z,28.05
2023-03-19T11:09:39.341Z,27.97
2023-03-19T11:12:17.424Z,27.54
2023-03-19T11:14:50.913Z,27.45
2023-03-19T11:17:18.233Z,27.63
2023-03-19T11:19:56.698Z,27.34
2023-03-19T11:22:27.736Z,27.23
2023-03-19T11:25:01.932Z,27.31
2023-03-19T11:27:31.975Z,27.24
2023-03-19T11:29:59.736Z,27.06
2023-03-19T11:32:55.691Z,26.96
2023-03-19T11:35:34.881Z,27.02
2023-03-19T11:38:03.541Z,26.79
2023-03-19T11:40:43.007Z,27.03
2023-03-19T11:43:43.289Z,26.64
2023-03-19T11:46:20.412Z,26.23
2023-03-19T11:49:00.811Z,26.20
2023-03-19T11:51:36.124Z,26.42
2023-03-19T11:54:14.357Z,26.77
2023-03-19T11:56:43.309Z,26.55
2023-03-19T12:00:03.710Z,26.55
2023-03-19T12:03:05.118Z,26.94
2023-03-19T12:05:35.478Z,26.66
2023-03-19T12:08:07.633Z,26.87
2023-03-19T12:10:35.425Z,27.15
2023-03-19T12:13:12.972Z,26.86
2023-03-19T12:16:13.655Z,26.45
2023-03-19T12:19:12.100Z,26.31
2023-03-19T12:22:01.159Z,27.26
2023-03-19T12:24:50.808Z,26.36
2023-03-19T12:27:27.972Z,26.26
2023-03-19T12:30:17.925Z,25.74
2023-03-19T12:33:25.304Z,26.28
2023-03-19T12:35:56.048Z,26.31
2023-03-19T12:38:40.404Z,26.14
2023-03-19T12:41:14.352Z,26.18
2023-03-19T12:44:02.068Z,26.36
2023-03-19T12:46:49.744Z,26.43
2023-03-19T12:49:20.966Z,26.32
2023-03-19T12:51:53.257Z,26.67
2023-03-19T12:54:24.476Z,26.63
2023-03-19T12:56:59.597Z,26.60
2023-03-19T12:59:40.348Z,26.59
2023-03-19T13:02:31.652Z,26.60
2023-03-19T13:05:48.879Z,28.24
2023-03-19T13:08:24.649Z,26.90
2023-03-19T13:10:52.256Z,26.33
2023-03-19T13:13:19.487Z,26.52
2023-03-19T13:15:49.647Z,26.57
2023-03-19T13:18:26.505Z,26.85
2023-03-19T13:21:05.764Z,26.83
2023-03-19T13:23:36.461Z,26.82
2023-03-19T13:26:07.915Z,27.27
2023-03-19T13:28:37.615Z,33.18
2023-03-19T13:31:06.032Z,30.93
2023-03-19T13:33:35.177Z,28.60
2023-03-19T13:36:05.443Z,28.65
2023-03-19T13:38:41.255Z,27.88
2023-03-19T13:41:39.972Z,27.67
2023-03-19T13:44:22.385Z,27.66
2023-03-19T13:46:51.373Z,27.81
2023-03-19T13:49:26.544Z,28.03
2023-03-19T13:52:20.585Z,28.14
2023-03-19T13:54:52.929Z,27.50
2023-03-19T13:57:23.717Z,27.26
2023-03-19T13:59:51.676Z,27.17
2023-03-19T14:02:21.936Z,26.86
2023-03-19T14:05:00.361Z,26.77
2023-03-19T14:07:30.982Z,26.37
2023-03-19T14:09:59.961Z,26.94
2023-03-19T14:12:34.297Z,26.29
2023-03-19T14:15:10.988Z,26.20
2023-03-19T14:17:42.141Z,26.75
2023-03-19T14:20:13.284Z,26.59
2023-03-19T14:22:41.130Z,26.80
2023-03-19T14:25:11.623Z,26.56
2023-03-19T14:27:45.022Z,26.85
2023-03-19T14:30:19.980Z,27.10
2023-03-19T14:32:49.080Z,27.32
2023-03-19T14:35:20.210Z,27.45
2023-03-19T14:37:50.365Z,26.97
2023-03-19T14:40:36.150Z,26.72
2023-03-19T14:43:27.260Z,26.90
2023-03-19T14:46:01.384Z,26.40
2023-03-19T14:48:56.330Z,26.43
2023-03-19T14:52:31.690Z,26.36
2023-03-19T14:55:01.644Z,26.82
2023-03-19T14:57:33.881Z,27.82
2023-03-19T15:00:02.846Z,27.13
2023-03-19T15:02:43.648Z,27.01
2023-03-19T15:05:33.648Z,27.38
2023-03-19T15:08:06.663Z,27.11
2023-03-19T15:11:10.742Z,26.88
2023-03-19T15:13:40.248Z,26.69
2023-03-19T15:16:26.197Z,27.07
2023-03-19T15:18:53.844Z,27.37
2023-03-19T15:21:21.573Z,27.26
2023-03-19T15:23:49.210Z,27.05
2023-03-19T15:26:29.422Z,27.04
2023-03-19T15:28:57.964Z,26.83
2023-03-19T15:31:55.031Z,27.16
2023-03-19T15:34:31.619Z,26.96
2023-03-19T15:37:01.050Z,27.35
2023-03-19T15:39:31.606Z,27.68
2023-03-19T15:42:01.593Z,27.75
2023-03-19T15:44:39.976Z,28.28
2023-03-19T15:47:12.375Z,27.70
2023-03-19T15:49:42.712Z,27.98
2023-03-19T15:52:13.184Z,28.45
2023-03-19T15:54:40.928Z,27.68
2023-03-19T15:57:09.491Z,27.63
2023-03-19T15:59:37.683Z,27.57
2023-03-19T16:02:29.170Z,27.84
2023-03-19T16:05:20.428Z,27.81
2023-03-19T16:07:44.679Z,28.32
2023-03-19T16:10:45.570Z,28.61
2023-03-19T16:13:29.805Z,28.28
2023-03-19T16:16:03.363Z,28.18
2023-03-19T16:18:54.496Z,28.56
2023-03-19T16:21:33.778Z,28.76
2023-03-19T16:24:03.457Z,28.96
2023-03-19T16:26:38.425Z,29.08
2023-03-19T16:29:18.421Z,29.09
2023-03-19T16:31:51.821Z,29.46
2023-03-19T16:34:30.746Z,29.75
2023-03-19T16:37:00.630Z,29.62
2023-03-19T16:39:31.161Z,29.28
2023-03-19T16:42:15.646Z,29.43
2023-03-19T16:44:44.473Z,29.68
2023-03-19T16:47:13.770Z,29.63
2023-03-19T16:49:41.171Z,29.82
2023-03-19T16:52:15.828Z,30.18
2023-03-19T16:54:43.628Z,30.85
2023-03-19T16:57:15.862Z,30.84
2023-03-19T16:59:44.045Z,32.03
2023-03-19T17:02:17.352Z,32.67
2023-03-19T17:04:46.409Z,32.78
2023-03-19T17:07:14.117Z,32.94
2023-03-19T17:09:41.657Z,33.42
2023-03-19T17:12:14.586Z,33.71
2023-03-19T17:14:42.806Z,33.63
2023-03-19T17:17:18.480Z,33.53
2023-03-19T17:19:46.734Z,33.88
2023-03-19T17:22:14.502Z,33.76
2023-03-19T17:24:42.367Z,33.81
2023-03-19T17:27:11.092Z,33.96
2023-03-19T17:29:38.769Z,33.73
2023-03-19T17:32:07.272Z,34.24
2023-03-19T17:34:36.801Z,34.39
2023-03-19T17:37:04.557Z,34.51
2023-03-19T17:39:32.836Z,34.58
2023-03-19T17:42:00.653Z,34.59
2023-03-19T17:44:28.133Z,34.63
2023-03-19T17:46:56.149Z,34.63
2023-03-19T17:49:29.972Z,35.18
2023-03-19T17:51:58.592Z,35.00
2023-03-19T17:54:27.157Z,35.38
2023-03-19T17:56:55.477Z,35.55
2023-03-19T17:59:23.454Z,35.79
2023-03-19T18:01:52.134Z,35.42
2023-03-19T18:04:21.408Z,35.23
2023-03-19T18:06:50.828Z,35.65
2023-03-19T18:09:28.241Z,46.48
2023-03-19T18:11:56.451Z,38.65
2023-03-19T18:14:24.014Z,36.96
2023-03-19T18:16:51.466Z,36.32
2023-03-19T18:19:29.755Z,36.42
2023-03-19T18:21:57.404Z,36.32
2023-03-19T18:24:25.126Z,48.19
2023-03-19T18:26:52.454Z,42.00
2023-03-19T18:29:19.798Z,38.38
2023-03-19T18:31:48.579Z,37.62
2023-03-19T18:34:16.442Z,37.60
2023-03-19T18:36:44.248Z,37.53
2023-03-19T18:39:15.848Z,37.37
2023-03-19T18:41:43.767Z,37.51
2023-03-19T18:44:12.301Z,37.62
2023-03-19T18:46:40.670Z,37.49
2023-03-19T18:49:20.904Z,37.36
2023-03-19T18:52:01.542Z,37.77
2023-03-19T18:54:31.128Z,37.66
2023-03-19T18:57:00.222Z,37.62
2023-03-19T18:59:30.853Z,37.80
2023-03-19T19:02:08.833Z,37.89
2023-03-19T19:04:36.572Z,37.93
2023-03-19T19:07:03.905Z,38.09
2023-03-19T19:09:31.244Z,38.04
2023-03-19T19:12:00.779Z,38.33
2023-03-19T19:14:28.438Z,38.44
2023-03-19T19:16:57.034Z,38.57
2023-03-19T19:19:27.600Z,38.72
2023-03-19T19:21:55.181Z,38.96
2023-03-19T19:24:22.575Z,38.74
2023-03-19T19:26:53.321Z,38.74
2023-03-19T19:29:23.872Z,39.06
2023-03-19T19:31:52.887Z,38.95
2023-03-19T19:34:20.633Z,38.85
2023-03-19T19:36:48.337Z,38.59
2023-03-19T19:39:16.781Z,38.83
2023-03-19T19:41:44.433Z,38.89
2023-03-19T19:44:30.143Z,39.15
2023-03-19T19:46:57.845Z,39.15
2023-03-19T19:49:25.308Z,39.19
2023-03-19T19:51:52.750Z,38.82
2023-03-19T19:54:21.693Z,38.87
2023-03-19T19:56:49.810Z,38.74
2023-03-19T19:59:17.303Z,38.54
2023-03-19T20:01:45.093Z,38.47
2023-03-19T20:04:14.294Z,38.19
2023-03-19T20:06:41.869Z,37.73
2023-03-19T20:09:09.295Z,37.69
2023-03-19T20:11:37.381Z,37.50
2023-03-19T20:14:04.726Z,37.14
2023-03-19T20:16:32.101Z,36.83
2023-03-19T20:18:59.799Z,36.56
2023-03-19T20:21:29.225Z,36.53
2023-03-19T20:23:58.761Z,36.61
2023-03-19T20:26:27.009Z,36.60
2023-03-19T20:28:54.576Z,36.57
2023-03-19T20:31:29.828Z,35.93
2023-03-19T20:33:57.728Z,35.74
2023-03-19T20:36:26.597Z,35.81
2023-03-19T20:38:54.178Z,35.92
2023-03-19T20:41:23.726Z,36.33
2023-03-19T20:43:51.478Z,36.52
2023-03-19T20:46:20.388Z,36.56
2023-03-19T20:48:48.753Z,36.86
2023-03-19T20:51:22.700Z,37.28
2023-03-19T20:53:51.508Z,37.30
2023-03-19T20:56:22.081Z,36.74
2023-03-19T20:58:49.755Z,36.91
2023-03-19T21:01:17.961Z,36.64
2023-03-19T21:03:45.492Z,36.68
2023-03-19T21:06:18.513Z,36.79
2023-03-19T21:08:48.114Z,36.45
2023-03-19T21:11:18.050Z,35.99
2023-03-19T21:13:53.113Z,36.01
2023-03-19T21:16:23.065Z,36.54
2023-03-19T21:18:51.809Z,37.16
2023-03-19T21:21:27.546Z,37.17
2023-03-19T21:24:01.438Z,37.17
2023-03-19T21:26:28.819Z,36.88
2023-03-19T21:29:02.874Z,37.11
2023-03-19T21:31:30.366Z,37.15
2023-03-19T21:33:58.667Z,37.52
2023-03-19T21:36:27.524Z,37.53
2023-03-19T21:38:54.897Z,37.57
2023-03-19T21:41:30.177Z,36.73
2023-03-19T21:44:00.349Z,36.32
2023-03-19T21:46:30.601Z,36.34
2023-03-19T21:48:58.617Z,36.07
2023-03-19T21:51:28.504Z,36.42
2023-03-19T21:53:56.134Z,36.66
2023-03-19T21:56:25.685Z,36.35
2023-03-19T21:58:53.393Z,36.05
2023-03-19T22:01:23.924Z,36.15
2023-03-19T22:03:56.564Z,36.39
2023-03-19T22:06:24.941Z,36.64
2023-03-19T22:08:56.154Z,36.87
2023-03-19T22:11:31.965Z,36.49
2023-03-19T22:14:16.376Z,36.42
2023-03-19T22:16:44.745Z,36.19
2023-03-19T22:19:14.423Z,36.32
2023-03-19T22:21:41.908Z,36.23
2023-03-19T22:24:09.284Z,36.34
2023-03-19T22:26:39.227Z,36.51
2023-03-19T22:29:27.076Z,36.12
2023-03-19T22:31:55.968Z,36.11
2023-03-19T22:34:25.686Z,35.95
2023-03-19T22:36:53.444Z,35.58
2023-03-19T22:39:21.180Z,35.63
2023-03-19T22:41:49.053Z,35.76
2023-03-19T22:44:24.466Z,35.73
2023-03-19T22:46:53.302Z,35.81
2023-03-19T22:49:20.714Z,35.74
2023-03-19T22:51:48.185Z,35.89
2023-03-19T22:54:15.926Z,35.93
2023-03-19T22:56:43.312Z,35.87
2023-03-19T22:59:11.268Z,36.32
2023-03-19T23:01:44.454Z,36.55
2023-03-19T23:04:22.403Z,36.82
2023-03-19T23:06:51.550Z,36.85
2023-03-19T23:09:48.003Z,36.45
2023-03-19T23:12:15.655Z,36.48
2023-03-19T23:14:42.996Z,36.27
2023-03-19T23:17:15.198Z,35.95
2023-03-19T23:19:42.855Z,35.81
2023-03-19T23:22:15.039Z,35.67
2023-03-19T23:24:44.619Z,35.47
2023-03-19T23:27:23.165Z,35.40
2023-03-19T23:29:51.116Z,35.49
2023-03-19T23:32:18.599Z,35.92
2023-03-19T23:34:59.202Z,36.36
2023-03-19T23:37:29.020Z,36.52
2023-03-19T23:39:57.878Z,36.37
2023-03-19T23:42:28.107Z,36.54
2023-03-19T23:44:58.448Z,36.96
2023-03-19T23:47:26.363Z,37.08
2023-03-19T23:49:53.805Z,37.15
2023-03-19T23:52:21.864Z,36.96
2023-03-19T23:54:49.265Z,37.14
2023-03-19T23:57:17.150Z,37.17
2023-03-19T23:59:46.307Z,37.27
